Time;durP1;ratioP1;P1;durP2;ratioP2;P2;SDS_P1;SDS_P2;PMS_P1;PMS_P2;Temp;Humidity;BMP_temperature;BMP_pressure;BME280_temperature;BME280_humidity;BME280_pressure;Samples;Min_cycle;Max_cycle;Signal;HPM_P1;HPM_P2
2022/10/13 00:01:20;;;;;;;3.33;2.53;;;;;;;13.65;48.83;100378.47;5073396;28;20504;-81
2022/10/13 00:03:46;;;;;;;5.18;2.45;;;;;;;13.68;48.79;100386.06;5073542;28;20100;-80
2022/10/13 00:06:14;;;;;;;3.10;2.35;;;;;;;13.56;48.85;100375.03;5073353;28;20017;-80
2022/10/13 00:08:40;;;;;;;3.15;2.17;;;;;;;13.11;49.28;100325.41;5072089;28;20028;-80
2022/10/13 00:11:17;;;;;;;3.70;2.63;;;;;;;12.89;49.29;100281.97;5073305;28;20020;-80
2022/10/13 00:13:43;;;;;;;4.28;2.65;;;;;;;13.51;49.17;100380.06;5073480;28;20028;-81
2022/10/13 00:16:10;;;;;;;4.25;2.70;;;;;;;13.18;48.92;100352.06;5072342;28;20224;-80
2022/10/13 00:18:36;;;;;;;5.75;3.05;;;;;;;13.26;48.91;100354.66;5073544;28;20040;-81
2022/10/13 00:21:06;;;;;;;3.92;2.60;;;;;;;13.34;48.97;100360.75;5073471;28;20078;-80
2022/10/13 00:23:33;;;;;;;4.93;3.05;;;;;;;13.53;48.93;100371.91;5073199;28;20099;-81
2022/10/13 00:26:02;;;;;;;2.80;2.17;;;;;;;12.95;48.77;100305.09;5073040;28;20031;-81
2022/10/13 00:28:28;;;;;;;3.42;2.25;;;;;;;12.85;48.81;100271.88;5073269;28;20025;-80
2022/10/13 00:30:53;;;;;;;2.65;2.45;;;;;;;12.90;49.05;100296.84;5073382;28;20051;-81
2022/10/13 00:33:18;;;;;;;5.38;2.67;;;;;;;13.22;49.34;100348.88;5073200;28;20012;-80
2022/10/13 00:35:47;;;;;;;3.67;2.42;;;;;;;12.88;49.29;100287.44;5073097;28;20021;-80
2022/10/13 00:38:17;;;;;;;2.67;2.25;;;;;;;13.48;49.51;100377.75;5071828;28;20038;-80
2022/10/13 00:40:54;;;;;;;3.95;2.38;;;;;;;13.47;49.61;100376.09;5073160;28;20417;-81
2022/10/13 00:43:25;;;;;;;3.53;2.35;;;;;;;12.69;49.70;100265.69;5072946;28;20021;-80
2022/10/13 00:45:52;;;;;;;3.35;2.50;;;;;;;13.07;49.93;100326.75;5072783;28;20036;-80
2022/10/13 00:48:21;;;;;;;3.63;2.17;;;;;;;12.37;49.57;100213.66;5072797;28;20028;-81
2022/10/13 00:50:47;;;;;;;3.67;2.17;;;;;;;13.39;49.79;100378.81;5072817;28;20125;-81
2022/10/13 00:53:15;;;;;;;3.22;2.38;;;;;;;13.35;49.51;100354.44;5071291;28;20107;-80
2022/10/13 00:55:43;;;;;;;3.78;2.25;;;;;;;13.39;49.76;100351.47;5072431;28;20024;-80
2022/10/13 00:58:15;;;;;;;3.72;2.20;;;;;;;13.07;49.88;100299.41;5072469;28;20485;-80
2022/10/13 01:00:43;;;;;;;5.22;2.78;;;;;;;12.84;49.98;100267.59;5072275;28;20095;-81
2022/10/13 01:03:10;;;;;;;2.92;2.20;;;;;;;12.73;49.54;100243.13;5072187;28;20048;-81
2022/10/13 01:05:37;;;;;;;3.83;2.33;;;;;;;13.53;49.76;100385.19;5071111;28;20056;-81
2022/10/13 01:08:03;;;;;;;4.97;2.55;;;;;;;12.84;49.90;100268.41;5072442;28;20095;-82
2022/10/13 01:10:43;;;;;;;3.42;2.40;;;;;;;13.08;49.94;100323.09;5071168;28;20104;-80
2022/10/13 01:13:36;;;;;;;3.25;2.28;;;;;;;13.47;50.01;100369.97;5071095;28;20398;-80
2022/10/13 01:16:30;;;;;;;4.47;2.72;;;;;;;13.43;50.03;100380.13;5072489;28;20565;-80
2022/10/13 01:19:08;;;;;;;4.75;2.40;;;;;;;13.45;49.93;100369.31;5056394;28;20102;-80
2022/10/13 01:21:55;;;;;;;3.83;2.20;;;;;;;13.27;50.17;100337.75;5072171;28;20078;-81
2022/10/13 01:24:32;;;;;;;4.22;2.60;;;;;;;13.57;49.92;100367.91;5072268;28;20017;-80
2022/10/13 01:27:22;;;;;;;4.03;2.92;;;;;;;13.58;50.15;100370.38;5072129;28;20157;-81
2022/10/13 01:30:07;;;;;;;6.65;3.38;;;;;;;13.66;49.97;100369.50;5070874;28;20020;-80
2022/10/13 01:32:42;;;;;;;3.50;2.50;;;;;;;12.92;49.94;100251.63;5072033;28;20017;-80
2022/10/13 01:35:26;;;;;;;5.38;2.92;;;;;;;13.67;50.01;100379.13;5072033;28;20144;-80
2022/10/13 01:38:08;;;;;;;4.90;2.60;;;;;;;12.90;50.21;100253.63;5071961;28;20020;-80
2022/10/13 01:40:45;;;;;;;5.93;2.88;;;;;;;13.65;50.31;100373.16;5070691;28;20086;-80
2022/10/13 01:43:18;;;;;;;6.95;2.60;;;;;;;13.67;50.16;100384.41;5072030;28;20020;-81
2022/10/13 01:45:50;;;;;;;4.28;2.55;;;;;;;13.39;50.53;100323.13;5071819;28;20406;-80
2022/10/13 01:48:17;;;;;;;3.90;2.42;;;;;;;13.08;50.51;100285.16;5070420;28;20023;-80
2022/10/13 01:50:43;;;;;;;5.13;2.70;;;;;;;13.63;50.58;100352.09;5070472;28;20032;-80
2022/10/13 01:53:11;;;;;;;5.00;2.67;;;;;;;13.13;50.21;100251.81;5071704;28;20028;-80
2022/10/13 01:55:36;;;;;;;6.78;2.35;;;;;;;13.18;50.17;100246.81;5071523;28;20440;-81
2022/10/13 01:58:01;;;;;;;3.92;2.30;;;;;;;12.91;50.40;100194.31;5071496;28;20025;-80
2022/10/13 02:00:38;;;;;;;3.85;2.22;;;;;;;12.37;50.20;100118.34;5070082;28;20028;-81
2022/10/13 02:03:25;;;;;;;4.68;2.30;;;;;;;13.87;50.73;100344.94;5071232;28;20059;-80
2022/10/13 02:06:09;;;;;;;5.03;2.53;;;;;;;13.76;51.11;100335.56;5071601;28;20031;-80
2022/10/13 02:08:49;;;;;;;6.93;2.60;;;;;;;13.87;50.33;100347.59;5071596;28;20413;-81
2022/10/13 02:11:18;;;;;;;3.65;2.40;;;;;;;13.70;50.31;100320.38;5071244;28;20027;-80
2022/10/13 02:13:46;;;;;;;5.95;2.10;;;;;;;13.90;50.20;100348.06;5070259;28;20029;-81
2022/10/13 02:16:14;;;;;;;5.20;2.53;;;;;;;13.34;50.28;100270.56;5071192;28;20036;-80
2022/10/13 02:18:40;;;;;;;4.65;2.25;;;;;;;12.08;50.33;100079.31;5071190;28;20024;-80
2022/10/13 02:21:06;;;;;;;3.72;2.35;;;;;;;13.27;50.31;100264.31;5071252;28;20032;-80
2022/10/13 02:23:31;;;;;;;4.53;2.53;;;;;;;13.45;50.40;100292.41;5071129;28;20028;-80
2022/10/13 02:25:59;;;;;;;3.95;2.30;;;;;;;13.79;50.40;100337.88;5071334;28;20035;-80
2022/10/13 02:28:24;;;;;;;4.28;2.17;;;;;;;13.74;50.49;100339.41;5071363;28;20036;-80
2022/10/13 02:30:50;;;;;;;5.72;2.28;;;;;;;13.37;50.65;100290.59;5071335;28;20025;-80
2022/10/13 02:33:16;;;;;;;5.72;2.40;;;;;;;13.48;50.92;100345.91;5071347;28;20031;-80
2022/10/13 02:35:42;;;;;;;3.03;1.73;;;;;;;13.22;51.03;100287.06;5069946;28;20075;-80
2022/10/13 02:38:08;;;;;;;4.63;2.22;;;;;;;13.42;51.01;100319.28;5071243;28;20523;-80
2022/10/13 02:40:34;;;;;;;4.18;2.00;;;;;;;13.02;50.97;100258.34;5071323;28;20517;-80
2022/10/13 02:42:59;;;;;;;4.03;2.28;;;;;;;13.24;50.99;100309.75;5071228;28;20047;-80
2022/10/13 02:45:25;;;;;;;4.68;2.35;;;;;;;13.48;51.00;100345.09;5071184;28;20056;-80
2022/10/13 02:47:50;;;;;;;4.80;2.10;;;;;;;13.35;50.97;100319.97;5069741;28;20035;-81
2022/10/13 02:50:16;;;;;;;5.03;2.08;;;;;;;13.22;50.73;100287.06;5071112;28;20029;-80
2022/10/13 02:52:41;;;;;;;4.88;2.15;;;;;;;13.14;51.16;100290.56;5069680;28;20039;-80
2022/10/13 02:55:07;;;;;;;2.40;2.00;;;;;;;13.41;51.39;100347.63;5070868;28;20037;-80
2022/10/13 02:57:33;;;;;;;2.00;1.60;;;;;;;13.15;51.54;100304.66;5071022;28;20099;-80
2022/10/13 02:59:58;;;;;;;3.35;2.00;;;;;;;13.19;51.82;100320.06;5070923;28;20051;-80
2022/10/13 03:02:26;;;;;;;4.65;2.25;;;;;;;13.14;51.70;100313.63;5070874;28;20041;-81
2022/10/13 03:04:52;;;;;;;3.40;2.00;;;;;;;13.21;51.90;100335.81;5070959;28;20028;-80
2022/10/13 03:07:17;;;;;;;3.38;2.30;;;;;;;12.49;52.45;100230.00;5070884;28;20031;-80
2022/10/13 03:09:43;;;;;;;3.95;2.42;;;;;;;12.93;52.37;100304.47;5069539;28;20055;-80
2022/10/13 03:12:08;;;;;;;2.88;2.10;;;;;;;12.39;52.33;100235.50;5069492;28;20032;-80
2022/10/13 03:14:33;;;;;;;2.50;2.10;;;;;;;11.42;52.13;100077.06;5070612;28;20180;-80
2022/10/13 03:16:59;;;;;;;5.07;2.33;;;;;;;12.61;52.18;100262.22;5070699;28;20024;-80
2022/10/13 03:19:25;;;;;;;2.83;2.30;;;;;;;12.47;52.40;100247.88;5070791;28;20035;-80
2022/10/13 03:21:50;;;;;;;3.10;2.35;;;;;;;12.29;52.31;100234.88;5069398;28;20024;-80
2022/10/13 03:24:15;;;;;;;4.03;2.22;;;;;;;12.36;52.78;100256.22;5071442;28;20481;-80
2022/10/13 03:26:41;;;;;;;5.00;2.42;;;;;;;12.37;52.64;100263.16;5074298;28;20137;-80
2022/10/13 03:29:06;;;;;;;5.45;2.50;;;;;;;12.82;52.57;100330.53;5074494;28;20099;-81
2022/10/13 03:31:31;;;;;;;3.17;2.50;;;;;;;11.81;52.67;100172.34;5073988;28;20422;-80
2022/10/13 03:33:57;;;;;;;3.20;2.60;;;;;;;12.74;53.25;100339.34;5072890;28;20035;-80
2022/10/13 03:36:22;;;;;;;5.40;2.70;;;;;;;12.46;53.02;100293.91;5074310;28;20103;-80
2022/10/13 03:38:48;;;;;;;3.88;2.60;;;;;;;12.26;53.21;100266.19;5074343;28;20067;-80
2022/10/13 03:41:16;;;;;;;6.47;3.30;;;;;;;11.97;53.39;100219.97;5074159;28;21045;-80
2022/10/13 03:43:43;;;;;;;4.03;2.90;;;;;;;12.63;53.00;100327.31;5074244;28;20448;-80
2022/10/13 03:46:13;;;;;;;4.07;3.03;;;;;;;12.61;53.18;100329.28;5074076;28;20044;-80
2022/10/13 03:48:39;;;;;;;3.90;2.53;;;;;;;12.36;53.36;100286.16;5074119;28;20033;-80
2022/10/13 03:51:10;;;;;;;2.88;2.33;;;;;;;12.25;53.35;100267.19;5073985;28;20027;-80
2022/10/13 03:53:36;;;;;;;6.37;2.63;;;;;;;12.60;53.39;100321.50;5072729;28;20024;-80
2022/10/13 03:56:02;;;;;;;3.70;2.67;;;;;;;11.92;53.29;100219.63;5073880;28;20510;-80
2022/10/13 03:58:28;;;;;;;4.35;2.63;;;;;;;12.23;53.49;100274.47;5073941;28;20020;-80
2022/10/13 04:00:53;;;;;;;4.85;2.65;;;;;;;12.35;53.48;100292.47;5072624;28;20052;-80
2022/10/13 04:03:19;;;;;;;3.72;2.95;;;;;;;12.63;53.02;100321.16;5073728;28;20528;-80
2022/10/13 04:05:45;;;;;;;6.13;3.20;;;;;;;12.14;53.31;100231.31;5073781;28;20020;-80
2022/10/13 04:08:11;;;;;;;4.85;3.20;;;;;;;12.29;53.77;100264.00;5073712;28;20394;-80
2022/10/13 04:10:37;;;;;;;5.32;3.03;;;;;;;12.21;53.65;100249.97;5073822;28;20053;-80
2022/10/13 04:13:02;;;;;;;4.50;2.72;;;;;;;11.81;53.62;100203.28;5073912;28;20024;-81
2022/10/13 04:15:28;;;;;;;4.75;2.92;;;;;;;12.02;53.37;100227.38;5073652;28;20033;-80
2022/10/13 04:17:53;;;;;;;4.35;2.67;;;;;;;10.62;53.33;99997.78;5072365;28;20052;-81
2022/10/13 04:20:18;;;;;;;7.00;2.90;;;;;;;12.35;53.90;100276.56;5073404;28;20029;-80
2022/10/13 04:22:44;;;;;;;6.45;2.90;;;;;;;10.62;54.00;100011.00;5073308;28;20020;-80
2022/10/13 04:25:09;;;;;;;4.63;3.00;;;;;;;12.37;53.39;100282.53;5073366;28;20024;-80
2022/10/13 04:27:38;;;;;;;5.55;2.88;;;;;;;11.97;53.74;100227.91;5073462;28;20024;-80
2022/10/13 04:30:05;;;;;;;6.57;3.50;;;;;;;12.14;53.39;100233.97;5073305;28;20020;-80
2022/10/13 04:32:31;;;;;;;10.15;4.18;;;;;;;12.64;53.19;100318.34;5071982;28;20024;-80
2022/10/13 04:34:56;;;;;;;7.10;4.63;;;;;;;11.96;53.28;100213.00;5073236;28;20039;-80
2022/10/13 04:37:22;;;;;;;10.32;3.95;;;;;;;12.31;53.22;100277.91;5070748;28;20042;-80
2022/10/13 04:39:48;;;;;;;8.15;4.32;;;;;;;10.86;53.27;100051.56;5072878;28;20029;-80
2022/10/13 04:42:13;;;;;;;7.05;4.13;;;;;;;12.15;53.98;100283.25;5072937;28;20036;-80
2022/10/13 04:44:39;;;;;;;10.05;5.32;;;;;;;10.65;53.27;100025.69;5073061;28;20103;-81
2022/10/13 04:47:04;;;;;;;17.23;7.03;;;;;;;11.98;53.42;100249.88;5072969;28;20038;-80
2022/10/13 04:49:29;;;;;;;9.40;5.10;;;;;;;12.07;53.67;100248.88;5072990;28;20025;-80
2022/10/13 04:51:55;;;;;;;7.68;4.95;;;;;;;12.23;53.42;100290.34;5072770;28;20115;-80
2022/10/13 04:54:21;;;;;;;8.13;5.22;;;;;;;11.90;53.61;100248.09;5072650;28;20024;-80
2022/10/13 04:56:46;;;;;;;12.70;6.72;;;;;;;12.57;53.93;100333.25;5072720;28;20024;-80
2022/10/13 04:59:12;;;;;;;12.88;9.02;;;;;;;12.15;53.76;100271.84;5072616;28;20032;-80
2022/10/13 05:01:37;;;;;;;10.38;7.80;;;;;;;12.31;53.54;100308.84;5071281;28;20052;-80
2022/10/13 05:04:04;;;;;;;13.63;7.75;;;;;;;12.25;53.32;100291.84;5072667;28;20035;-80
2022/10/13 05:06:34;;;;;;;17.95;10.10;;;;;;;12.19;53.29;100289.03;5072656;28;20024;-80
2022/10/13 05:09:00;;;;;;;12.10;9.25;;;;;;;12.13;53.71;100268.53;5071027;28;20046;-80
2022/10/13 05:11:26;;;;;;;13.07;8.77;;;;;;;11.94;53.85;100281.16;5072142;28;20020;-80
2022/10/13 05:13:52;;;;;;;10.90;7.28;;;;;;;11.42;53.57;100159.88;5072054;28;20047;-80
2022/10/13 05:16:19;;;;;;;13.00;6.35;;;;;;;11.97;53.86;100237.66;5070983;28;20020;-80
2022/10/13 05:18:46;;;;;;;10.60;6.13;;;;;;;11.97;53.52;100251.72;5072237;28;20025;-80
2022/10/13 05:21:16;;;;;;;9.05;5.63;;;;;;;12.72;53.44;100352.78;5070957;28;20028;-80
2022/10/13 05:23:42;;;;;;;10.50;4.93;;;;;;;12.59;53.32;100320.66;5072187;28;20025;-81
2022/10/13 05:26:12;;;;;;;11.93;5.28;;;;;;;12.82;53.49;100346.44;5071952;28;20058;-80
2022/10/13 05:28:39;;;;;;;6.55;4.65;;;;;;;12.74;53.32;100336.69;5070321;28;20028;-80
2022/10/13 05:31:13;;;;;;;6.97;4.18;;;;;;;12.55;53.18;100310.59;5071700;28;20028;-80
2022/10/13 05:33:39;;;;;;;9.80;4.93;;;;;;;12.91;52.92;100353.34;5071745;28;20443;-80
2022/10/13 05:36:16;;;;;;;8.95;4.68;;;;;;;12.62;52.87;100341.50;5070515;28;20467;-80
2022/10/13 05:38:41;;;;;;;11.75;5.45;;;;;;;12.80;52.82;100337.84;5071967;28;20019;-80
2022/10/13 05:41:09;;;;;;;6.63;4.80;;;;;;;13.02;53.17;100366.22;5071796;28;20028;-80
2022/10/13 05:43:37;;;;;;;10.10;4.75;;;;;;;12.78;53.11;100313.31;5071846;28;20032;-80
2022/10/13 05:46:03;;;;;;;7.55;5.88;;;;;;;12.70;52.87;100308.91;5078965;28;20099;-80
2022/10/13 05:48:29;;;;;;;9.90;5.88;;;;;;;13.17;52.82;100369.81;5077276;28;20115;-80
2022/10/13 05:50:56;;;;;;;12.93;6.43;;;;;;;12.93;53.15;100325.66;5079305;28;20028;-80
2022/10/13 05:53:25;;;;;;;14.05;6.82;;;;;;;13.13;52.88;100341.97;5084886;28;20016;-80
2022/10/13 05:55:55;;;;;;;10.45;8.40;;;;;;;13.24;52.56;100338.09;5091313;28;20642;-80
2022/10/13 05:58:21;;;;;;;17.20;11.35;;;;;;;12.93;52.57;100298.34;5084539;28;20091;-80
2022/10/13 06:00:47;;;;;;;13.23;8.40;;;;;;;12.98;52.84;100277.44;5090868;28;20039;-80
2022/10/13 06:03:15;;;;;;;9.50;7.57;;;;;;;13.55;52.47;100365.44;5090517;28;20044;-80
2022/10/13 06:05:44;;;;;;;13.85;9.23;;;;;;;13.25;52.73;100306.09;5071405;28;20107;-80
2022/10/13 06:08:09;;;;;;;11.05;9.45;;;;;;;13.47;52.72;100336.31;5075047;28;20021;-80
2022/10/13 06:10:36;;;;;;;12.73;8.30;;;;;;;13.40;52.71;100319.47;5078988;28;20478;-80
2022/10/13 06:13:01;;;;;;;12.80;8.32;;;;;;;13.12;52.73;100313.78;5075011;28;20039;-80
2022/10/13 06:15:27;;;;;;;13.65;8.35;;;;;;;13.11;52.66;100245.03;5084013;28;20544;-80
2022/10/13 06:17:52;;;;;;;10.82;8.25;;;;;;;13.42;52.44;100282.97;5091486;28;20027;-81
2022/10/13 06:20:18;;;;;;;11.57;8.27;;;;;;;13.17;52.44;100226.63;5091215;28;20051;-80
2022/10/13 06:22:43;;;;;;;9.68;7.53;;;;;;;13.67;52.27;100283.56;5091320;28;20023;-80
2022/10/13 06:25:09;;;;;;;12.88;8.52;;;;;;;13.88;52.33;100301.47;5090353;28;20055;-81
2022/10/13 06:27:34;;;;;;;11.35;8.32;;;;;;;13.77;52.36;100265.56;5093169;28;20431;-81
2022/10/13 06:29:59;;;;;;;12.60;8.50;;;;;;;14.36;52.16;100347.13;5095120;28;20027;-81
2022/10/13 06:32:25;;;;;;;11.35;9.00;;;;;;;14.27;52.28;100322.50;5085122;28;20027;-81
2022/10/13 06:34:50;;;;;;;13.57;9.00;;;;;;;14.04;52.25;100272.09;5070084;28;20024;-80
2022/10/13 06:37:16;;;;;;;11.90;9.98;;;;;;;14.43;52.28;100338.28;5071805;28;20413;-80
2022/10/13 06:39:41;;;;;;;14.95;12.25;;;;;;;13.61;52.29;100197.56;5070873;28;20044;-80
2022/10/13 06:42:07;;;;;;;12.45;10.00;;;;;;;13.84;52.30;100217.88;5071386;28;20024;-80
2022/10/13 06:44:33;;;;;;;11.05;9.10;;;;;;;14.28;52.54;100279.81;5072611;28;20048;-80
2022/10/13 06:46:59;;;;;;;10.65;8.82;;;;;;;14.60;52.57;100318.47;5079699;28;20027;-80
2022/10/13 06:49:25;;;;;;;12.63;9.98;;;;;;;14.54;52.49;100302.44;5081045;28;20039;-80
2022/10/13 06:51:50;;;;;;;11.82;9.30;;;;;;;14.37;52.69;100263.78;5073285;28;20021;-80
2022/10/13 06:54:15;;;;;;;14.20;10.32;;;;;;;14.70;52.47;100294.25;5090469;28;20077;-80
2022/10/13 06:56:41;;;;;;;13.68;10.88;;;;;;;15.18;52.66;100366.44;5072469;28;20390;-80
2022/10/13 06:59:06;;;;;;;10.88;9.02;;;;;;;15.27;52.39;100376.78;5081466;28;20024;-81
2022/10/13 07:01:32;;;;;;;11.15;9.15;;;;;;;14.93;52.55;100307.44;5075089;28;20589;-81
2022/10/13 07:03:58;;;;;;;16.25;10.88;;;;;;;14.81;52.57;100284.97;5081257;28;20031;-80
2022/10/13 07:06:23;;;;;;;12.48;9.95;;;;;;;14.72;52.46;100249.72;5083646;28;20069;-81
2022/10/13 07:08:48;;;;;;;10.48;9.50;;;;;;;14.76;52.08;100253.66;5094581;28;20016;-80
2022/10/13 07:11:14;;;;;;;15.77;10.18;;;;;;;15.63;51.95;100378.63;5084705;28;20024;-80
2022/10/13 07:13:41;;;;;;;13.70;10.95;;;;;;;15.20;52.05;100309.38;5074333;28;20436;-80
2022/10/13 07:16:07;;;;;;;14.80;11.13;;;;;;;15.64;51.86;100366.16;5073990;28;20028;-81
2022/10/13 07:18:33;;;;;;;14.60;12.85;;;;;;;15.46;51.85;100324.78;5077857;28;20028;-80
2022/10/13 07:21:00;;;;;;;17.02;13.13;;;;;;;15.36;51.50;100284.34;5074319;28;20024;-79
2022/10/13 07:23:26;;;;;;;14.35;12.38;;;;;;;15.49;51.49;100316.41;5074149;28;20020;-80
2022/10/13 07:25:52;;;;;;;14.18;11.63;;;;;;;16.03;51.38;100378.97;5078702;28;20146;-81
2022/10/13 07:28:18;;;;;;;14.05;9.93;;;;;;;15.43;51.40;100273.75;5075595;28;20056;-80
2022/10/13 07:30:43;;;;;;;11.73;9.27;;;;;;;15.72;51.03;100310.94;5076963;28;20399;-80
2022/10/13 07:33:09;;;;;;;11.05;9.52;;;;;;;16.21;50.79;100368.66;5075039;28;20081;-80
2022/10/13 07:35:38;;;;;;;9.00;7.68;;;;;;;16.28;50.57;100366.84;5074555;28;20024;-80
2022/10/13 07:38:03;;;;;;;10.63;8.05;;;;;;;15.72;50.58;100256.84;5074245;28;20493;-80
2022/10/13 07:40:29;;;;;;;10.95;8.07;;;;;;;16.09;50.08;100307.09;5078437;28;20093;-80
2022/10/13 07:42:57;;;;;;;11.75;8.35;;;;;;;16.09;49.81;100290.28;5091568;28;20069;-81
2022/10/13 07:45:23;;;;;;;11.85;9.10;;;;;;;16.61;49.73;100353.75;5081883;28;20025;-80
2022/10/13 07:47:49;;;;;;;12.45;8.77;;;;;;;16.49;49.37;100353.47;5078438;28;20413;-79
2022/10/13 07:50:15;;;;;;;11.20;9.88;;;;;;;16.55;49.80;100319.06;5073482;28;20020;-78
2022/10/13 07:52:40;;;;;;;9.48;8.48;;;;;;;16.43;49.62;100268.16;5074063;28;20495;-81
2022/10/13 07:55:06;;;;;;;10.13;8.32;;;;;;;16.20;48.98;100215.97;5086121;28;20032;-80
2022/10/13 07:57:32;;;;;;;8.30;7.43;;;;;;;16.89;49.05;100331.53;5082628;28;20021;-80
2022/10/13 07:59:57;;;;;;;10.23;6.90;;;;;;;17.10;48.75;100332.25;5091208;28;20034;-78
2022/10/13 08:02:22;;;;;;;9.23;6.72;;;;;;;16.57;48.42;100235.19;5081935;28;20428;-80
2022/10/13 08:04:48;;;;;;;8.82;6.60;;;;;;;17.33;48.25;100333.75;5075870;28;20029;-81
2022/10/13 08:07:15;;;;;;;9.65;7.10;;;;;;;15.98;48.24;100093.75;5087583;28;20035;-80
2022/10/13 08:09:41;;;;;;;10.60;7.53;;;;;;;17.52;48.16;100334.78;5076923;28;20027;-80
2022/10/13 08:12:06;;;;;;;8.98;6.63;;;;;;;17.58;48.10;100318.78;5084736;28;20032;-80
2022/10/13 08:14:32;;;;;;;5.68;4.15;;;;;;;17.62;47.91;100341.38;5088044;28;20058;-80
2022/10/13 08:16:57;;;;;;;6.10;4.30;;;;;;;17.38;47.93;100277.91;5092360;28;20127;-80
2022/10/13 08:19:25;;;;;;;6.00;4.53;;;;;;;17.50;47.85;100315.50;5093519;28;20031;-80
2022/10/13 08:21:51;;;;;;;6.18;4.75;;;;;;;17.71;47.99;100318.81;5090349;28;20447;-81
2022/10/13 08:24:18;;;;;;;6.85;4.78;;;;;;;17.43;48.05;100299.47;5089596;28;20016;-80
2022/10/13 08:26:45;;;;;;;7.95;4.28;;;;;;;17.78;48.02;100338.34;5081491;28;20032;-80
2022/10/13 08:29:12;;;;;;;6.07;4.47;;;;;;;16.97;47.52;100185.47;5084981;28;20080;-79
2022/10/13 08:31:37;;;;;;;5.60;4.90;;;;;;;17.87;47.34;100319.47;5072983;28;20549;-80
2022/10/13 08:34:03;;;;;;;8.07;5.95;;;;;;;17.63;47.52;100286.94;5078531;28;20055;-79
2022/10/13 08:36:28;;;;;;;7.82;5.10;;;;;;;16.94;47.39;100179.72;5083594;28;20028;-80
2022/10/13 08:38:53;;;;;;;7.90;5.90;;;;;;;17.45;47.21;100239.50;5085210;28;20020;-79
2022/10/13 08:41:24;;;;;;;7.22;3.70;;;;;;;17.92;47.01;100307.13;5079806;28;20035;-80
2022/10/13 08:43:56;;;;;;;8.77;4.53;;;;;;;17.79;47.15;100281.22;5084980;28;20028;-80
2022/10/13 08:46:31;;;;;;;4.15;2.83;;;;;;;18.12;47.06;100314.28;5078882;28;20036;-80
2022/10/13 08:49:00;;;;;;;6.85;3.75;;;;;;;17.81;46.82;100256.13;5079139;28;20028;-80
2022/10/13 08:51:27;;;;;;;5.75;3.58;;;;;;;17.99;46.54;100307.13;5083730;28;20455;-80
2022/10/13 08:53:53;;;;;;;5.93;3.20;;;;;;;17.74;46.51;100218.75;5072413;28;20028;-80
2022/10/13 08:56:21;;;;;;;8.65;4.28;;;;;;;18.44;46.17;100305.38;5080198;28;20036;-80
2022/10/13 08:58:49;;;;;;;5.53;3.80;;;;;;;18.58;46.02;100315.00;5091311;28;20415;-80
2022/10/13 09:01:20;;;;;;;4.15;3.45;;;;;;;18.57;45.42;100299.16;5092087;28;20048;-80
2022/10/13 09:03:56;;;;;;;6.75;3.55;;;;;;;18.42;45.22;100253.94;5080465;28;20029;-80
2022/10/13 09:06:27;;;;;;;6.13;3.38;;;;;;;18.39;45.02;100239.16;5082587;28;20036;-80
2022/10/13 09:08:59;;;;;;;3.65;3.28;;;;;;;18.76;45.08;100290.28;5089400;28;20073;-80
2022/10/13 09:11:27;;;;;;;4.05;2.92;;;;;;;18.66;44.83;100285.38;5072478;28;20020;-80
2022/10/13 09:13:54;;;;;;;5.95;3.45;;;;;;;18.88;44.50;100287.75;5075942;28;20042;-79
2022/10/13 09:16:34;;;;;;;7.15;4.45;;;;;;;18.26;44.77;100191.09;5073453;28;20060;-79
2022/10/13 09:19:21;;;;;;;7.28;3.60;;;;;;;18.93;44.41;100285.25;5081337;28;20024;-80
2022/10/13 09:21:48;;;;;;;8.35;5.25;;;;;;;18.72;44.77;100255.09;5081750;28;20029;-79
2022/10/13 09:24:16;;;;;;;5.60;4.15;;;;;;;19.03;44.41;100294.47;5072058;28;20027;-79
2022/10/13 09:26:43;;;;;;;5.25;3.80;;;;;;;19.16;44.27;100306.94;5070490;28;20493;-80
2022/10/13 09:29:14;;;;;;;5.78;4.13;;;;;;;18.31;43.95;100153.03;5081753;28;20063;-80
2022/10/13 09:31:40;;;;;;;10.07;6.10;;;;;;;18.82;44.25;100233.25;5079879;28;20386;-80
2022/10/13 09:34:23;;;;;;;7.68;6.20;;;;;;;19.31;43.93;100294.06;5080242;28;20337;-80
2022/10/13 09:36:59;;;;;;;9.15;7.20;;;;;;;19.15;43.64;100253.63;5070856;28;20024;-80
2022/10/13 09:39:25;;;;;;;5.30;3.90;;;;;;;19.35;42.99;100265.84;5080576;28;20386;-80
2022/10/13 09:41:52;;;;;;;4.63;3.60;;;;;;;19.61;42.82;100278.25;5082498;28;20042;-80
2022/10/13 09:44:28;;;;;;;6.18;4.75;;;;;;;19.76;42.55;100283.25;5073328;28;20405;-80
2022/10/13 09:46:56;;;;;;;4.88;3.75;;;;;;;19.39;41.93;100182.41;5073431;28;20028;-80
2022/10/13 09:49:27;;;;;;;8.68;4.88;;;;;;;20.06;42.06;100261.13;5081868;28;20020;-79
2022/10/13 09:52:00;;;;;;;8.55;7.30;;;;;;;19.88;41.59;100235.94;5075403;28;20465;-80
2022/10/13 09:54:34;;;;;;;8.15;4.45;;;;;;;20.39;41.00;100264.31;5070023;28;20049;-79
2022/10/13 09:57:25;;;;;;;8.90;3.63;;;;;;;19.79;40.59;100166.78;5081046;28;20740;-80
2022/10/13 09:59:57;;;;;;;7.35;4.20;;;;;;;19.97;40.49;100177.50;5073581;28;20045;-79
2022/10/13 10:02:31;;;;;;;5.10;3.53;;;;;;;20.63;39.98;100251.84;5072397;28;20117;-79
2022/10/13 10:05:02;;;;;;;7.20;4.07;;;;;;;20.66;39.82;100237.97;5082295;28;20024;-80
2022/10/13 10:07:31;;;;;;;7.15;4.07;;;;;;;20.78;39.73;100246.06;5073371;28;20043;-80
2022/10/13 10:10:04;;;;;;;9.18;3.72;;;;;;;20.44;39.80;100173.25;5080369;28;20028;-80
2022/10/13 10:12:35;;;;;;;6.82;3.50;;;;;;;20.62;39.11;100199.22;5078921;28;20128;-80
2022/10/13 10:15:01;;;;;;;6.10;4.22;;;;;;;21.09;38.58;100235.09;5077454;28;20173;-80
2022/10/13 10:17:32;;;;;;;4.35;3.05;;;;;;;21.30;37.33;100233.78;5079591;28;20493;-80
2022/10/13 10:20:39;;;;;;;5.68;4.55;;;;;;;21.44;35.93;100232.50;5071042;28;20103;-79
2022/10/13 10:23:13;;;;;;;5.88;3.70;;;;;;;21.63;35.92;100227.06;5081241;28;20459;-80
2022/10/13 10:25:44;;;;;;;4.50;2.70;;;;;;;21.69;35.84;100231.50;5076596;28;20024;-80
2022/10/13 10:28:31;;;;;;;7.85;3.55;;;;;;;21.73;34.83;100220.03;5104223;28;20042;-80
2022/10/13 10:31:03;;;;;;;10.73;5.45;;;;;;;21.15;34.81;100107.16;5076230;28;20043;-79
2022/10/13 10:33:53;;;;;;;7.13;3.20;;;;;;;21.75;33.76;100203.69;5084779;28;20034;-79
2022/10/13 10:36:25;;;;;;;5.60;2.75;;;;;;;21.79;34.18;100207.53;5076903;28;20028;-79
2022/10/13 10:39:00;;;;;;;;;;;;;;;21.71;32.76;100200.63;5082270;28;20551;-80
2022/10/13 10:41:43;;;;;;;6.78;3.05;;;;;;;21.82;34.25;100197.13;5085390;28;19912;-80
2022/10/13 10:44:11;;;;;;;4.32;2.30;;;;;;;21.95;34.17;100196.06;5080964;28;20400;-80
2022/10/13 10:46:45;;;;;;;4.68;2.60;;;;;;;21.78;33.73;100158.31;5070346;28;20119;-81
2022/10/13 10:49:16;;;;;;;5.93;2.25;;;;;;;22.08;33.51;100189.63;5075511;28;20020;-80
2022/10/13 10:51:43;;;;;;;5.50;3.28;;;;;;;21.45;33.10;100078.31;5079349;28;20036;-80
2022/10/13 10:54:19;;;;;;;4.68;2.58;;;;;;;21.58;32.69;100100.63;5077025;28;20020;-80
2022/10/13 10:56:54;;;;;;;7.35;3.03;;;;;;;22.16;32.26;100192.75;5077231;28;20416;-80
2022/10/13 10:59:44;;;;;;;2.17;1.70;;;;;;;22.35;31.68;100171.91;5088772;28;20465;-80
2022/10/13 11:02:48;;;;;;;5.93;2.17;;;;;;;22.30;30.82;100162.94;5079446;28;20428;-80
2022/10/13 11:05:15;;;;;;;5.28;4.25;;;;;;;22.22;31.93;100141.75;5073987;28;20036;-80
2022/10/13 11:07:41;;;;;;;5.57;4.60;;;;;;;22.42;31.73;100161.00;5070136;28;20129;-79
2022/10/13 11:10:15;;;;;;;4.70;2.92;;;;;;;22.52;31.06;100155.81;5072428;28;20048;-80
2022/10/13 11:12:49;;;;;;;5.72;3.10;;;;;;;22.55;31.09;100149.94;5089522;28;20036;-78
2022/10/13 11:15:23;;;;;;;6.13;2.65;;;;;;;22.37;30.99;100125.94;5081702;28;20024;-80
2022/10/13 11:17:48;;;;;;;4.25;2.40;;;;;;;21.88;30.57;100042.13;5073153;28;20112;-79
2022/10/13 11:20:19;;;;;;;5.35;2.53;;;;;;;22.54;30.21;100140.25;5075267;28;20054;-78
2022/10/13 11:22:57;;;;;;;6.00;1.73;;;;;;;22.55;29.33;100128.41;5082039;28;20020;-79
2022/10/13 11:25:39;;;;;;;2.42;1.67;;;;;;;22.56;29.91;100121.16;5090718;28;20016;-79
2022/10/13 11:28:19;;;;;;;3.30;1.90;;;;;;;22.37;28.39;100110.59;5090113;28;20031;-79
2022/10/13 11:30:50;;;;;;;5.50;2.33;;;;;;;21.44;29.78;100004.16;5088946;28;20047;-79
2022/10/13 11:33:37;;;;;;;4.57;2.30;;;;;;;22.21;29.49;100108.66;5078306;28;20024;-79